Time;durP1;ratioP1;P1;durP2;ratioP2;P2;SDS_P1;SDS_P2;PMS_P1;PMS_P2;Temp;Humidity;BMP_temperature;BMP_pressure;BME280_temperature;BME280_humidity;BME280_pressure;Samples;Min_cycle;Max_cycle;Signal;HPM_P1;HPM_P2
2022/10/14 00:00:40;;;;;;;21.98;13.82;;;;;;;;;;5004815;28;20029;-68
2022/10/14 00:03:06;;;;;;;23.83;13.60;;;;;;;;;;5024507;28;20036;-67
2022/10/14 00:05:31;;;;;;;20.15;13.52;;;;;;;;;;5021174;28;20038;-68
2022/10/14 00:07:57;;;;;;;21.27;13.48;;;;;;;;;;5020665;28;20037;-68
2022/10/14 00:10:22;;;;;;;20.63;13.95;;;;;;;;;;5022913;28;20037;-68
2022/10/14 00:12:49;;;;;;;19.92;13.40;;;;;;;;;;5026617;28;20109;-68
2022/10/14 00:15:15;;;;;;;21.10;14.60;;;;;;;;;;5026406;28;20494;-68
2022/10/14 00:17:40;;;;;;;17.33;12.48;;;;;;;;;;5025661;28;20026;-68
2022/10/14 00:20:07;;;;;;;20.52;13.63;;;;;;;;;;5024860;28;20573;-68
2022/10/14 00:22:32;;;;;;;28.90;13.63;;;;;;;;;;5008849;28;20091;-68
2022/10/14 00:24:58;;;;;;;20.83;12.77;;;;;;;;;;5023363;28;20045;-69
2022/10/14 00:27:23;;;;;;;18.88;13.20;;;;;;;;;;5029027;28;20488;-69
2022/10/14 00:29:49;;;;;;;20.45;12.68;;;;;;;;;;5026576;28;20026;-71
2022/10/14 00:32:14;;;;;;;20.95;13.82;;;;;;;;;;5025642;28;20033;-69
2022/10/14 00:34:40;;;;;;;18.67;13.60;;;;;;;;;;5024057;28;20567;-69
2022/10/14 00:37:05;;;;;;;20.63;12.95;;;;;;;;;;5006088;28;20033;-68
2022/10/14 00:39:30;;;;;;;19.33;12.82;;;;;;;;;;5009006;28;20393;-68
2022/10/14 00:41:56;;;;;;;21.00;13.70;;;;;;;;;;5021715;28;20034;-68
2022/10/14 00:44:24;;;;;;;20.63;13.55;;;;;;;;;;5026941;28;20037;-68
2022/10/14 00:46:50;;;;;;;23.88;13.82;;;;;;;;;;5022911;28;20100;-68
2022/10/14 00:49:44;;;;;;;23.38;14.20;;;;;;;;;;5021712;28;20045;-69
2022/10/14 00:52:16;;;;;;;19.00;12.95;;;;;;;;;;5023149;28;20037;-69
2022/10/14 00:54:47;;;;;;;22.42;14.45;;;;;;;;;;5021332;28;20029;-68
2022/10/14 00:57:16;;;;;;;21.95;14.43;;;;;;;;;;5025814;28;20113;-68
2022/10/14 00:59:41;;;;;;;20.25;13.77;;;;;;;;;;5024518;28;20141;-68
2022/10/14 01:02:07;;;;;;;20.30;13.68;;;;;;;;;;5023324;28;20132;-68
2022/10/14 01:04:36;;;;;;;21.25;13.55;;;;;;;;;;5025435;28;20049;-70
2022/10/14 01:07:17;;;;;;;19.70;13.48;;;;;;;;;;5023582;28;20042;-68
2022/10/14 01:09:58;;;;;;;21.88;13.23;;;;;;;;;;5023035;28;20034;-69
2022/10/14 01:12:57;;;;;;;20.80;13.32;;;;;;;;;;5024220;28;20672;-67
2022/10/14 01:15:35;;;;;;;21.23;13.43;;;;;;;;;;5003949;28;20044;-68
2022/10/14 01:18:10;;;;;;;20.00;13.90;;;;;;;;;;5006937;28;20124;-68
2022/10/14 01:21:10;;;;;;;20.80;13.40;;;;;;;;;;5022555;28;20409;-68
2022/10/14 01:24:01;;;;;;;20.60;13.18;;;;;;;;;;5016766;28;20064;-68
2022/10/14 01:26:32;;;;;;;22.13;14.50;;;;;;;;;;5022214;28;20088;-68
2022/10/14 01:29:23;;;;;;;23.88;13.88;;;;;;;;;;5003742;28;20049;-69
2022/10/14 01:32:14;;;;;;;21.02;12.90;;;;;;;;;;5022636;28;20056;-68
2022/10/14 01:34:49;;;;;;;20.63;12.70;;;;;;;;;;5012727;28;20420;-71
2022/10/14 01:37:22;;;;;;;22.00;12.00;;;;;;;;;;5021676;28;20044;-70
2022/10/14 01:39:53;;;;;;;19.08;11.80;;;;;;;;;;5024301;28;20045;-71
2022/10/14 01:42:26;;;;;;;18.98;11.20;;;;;;;;;;5023385;28;20080;-70
2022/10/14 01:44:57;;;;;;;16.30;11.20;;;;;;;;;;5023633;28;20517;-72
2022/10/14 01:47:26;;;;;;;17.20;9.68;;;;;;;;;;5007859;28;20056;-69
2022/10/14 01:50:15;;;;;;;15.45;10.13;;;;;;;;;;5022650;28;20067;-69
2022/10/14 01:53:04;;;;;;;16.88;10.90;;;;;;;;;;5023917;28;20543;-69
2022/10/14 01:55:34;;;;;;;12.90;9.07;;;;;;;;;;5022675;28;20121;-71
2022/10/14 01:58:00;;;;;;;18.45;9.15;;;;;;;;;;5006692;28;23036;-70
2022/10/14 02:00:26;;;;;;;15.93;9.20;;;;;;;;;;5024606;28;20110;-69
2022/10/14 02:02:51;;;;;;;13.80;9.00;;;;;;;;;;5021686;28;20526;-68
2022/10/14 02:05:16;;;;;;;13.60;9.00;;;;;;;;;;5022580;28;20140;-69
2022/10/14 02:07:46;;;;;;;18.10;8.77;;;;;;;;;;5021400;28;20042;-69
2022/10/14 02:10:20;;;;;;;11.68;8.05;;;;;;;;;;5026315;28;20041;-69
2022/10/14 02:13:28;;;;;;;13.70;7.85;;;;;;;;;;5022863;28;20031;-69
2022/10/14 02:16:07;;;;;;;10.55;8.00;;;;;;;;;;5019648;28;20022;-71
2022/10/14 02:18:50;;;;;;;12.88;7.45;;;;;;;;;;5024616;28;20033;-69
2022/10/14 02:21:47;;;;;;;10.85;7.88;;;;;;;;;;5022137;28;20046;-69
2022/10/14 02:24:21;;;;;;;11.98;7.30;;;;;;;;;;5017000;28;20045;-68
2022/10/14 02:26:49;;;;;;;11.25;7.60;;;;;;;;;;5014962;28;20041;-68
2022/10/14 02:29:18;;;;;;;11.07;7.72;;;;;;;;;;5003778;28;20041;-68
2022/10/14 02:31:45;;;;;;;11.27;7.90;;;;;;;;;;5010074;28;20038;-69
2022/10/14 02:34:14;;;;;;;8.30;6.28;;;;;;;;;;5020677;28;20457;-68
2022/10/14 02:36:41;;;;;;;9.68;6.72;;;;;;;;;;5025992;28;20025;-69
2022/10/14 02:39:10;;;;;;;13.27;6.95;;;;;;;;;;5024415;28;20095;-68
2022/10/14 02:41:37;;;;;;;12.40;7.13;;;;;;;;;;5021703;28;20041;-68
2022/10/14 02:44:04;;;;;;;10.13;6.75;;;;;;;;;;5007528;28;20048;-68
2022/10/14 02:46:32;;;;;;;11.20;6.90;;;;;;;;;;4990886;28;20449;-69
2022/10/14 02:48:58;;;;;;;12.48;6.95;;;;;;;;;;5019371;28;20146;-68
2022/10/14 02:51:23;;;;;;;13.43;7.00;;;;;;;;;;5018664;28;20477;-68
2022/10/14 02:53:48;;;;;;;14.00;6.78;;;;;;;;;;5019430;28;20030;-69
2022/10/14 02:56:15;;;;;;;13.63;6.63;;;;;;;;;;5018460;28;20037;-69
2022/10/14 02:58:41;;;;;;;11.98;6.70;;;;;;;;;;5024990;28;20034;-68
2022/10/14 03:01:07;;;;;;;12.95;6.50;;;;;;;;;;5017588;28;20042;-68
2022/10/14 03:03:32;;;;;;;12.18;6.80;;;;;;;;;;5005968;28;20555;-69
2022/10/14 03:05:57;;;;;;;13.65;6.75;;;;;;;;;;5006215;28;20034;-68
2022/10/14 03:08:23;;;;;;;9.70;6.68;;;;;;;;;;5005410;28;20038;-69
2022/10/14 03:10:48;;;;;;;13.93;6.90;;;;;;;;;;5016689;28;20052;-69
2022/10/14 03:13:14;;;;;;;12.90;6.55;;;;;;;;;;5022563;28;20047;-68
2022/10/14 03:15:39;;;;;;;11.30;7.18;;;;;;;;;;5005314;28;20033;-70
2022/10/14 03:18:05;;;;;;;10.60;6.88;;;;;;;;;;5004779;28;20514;-69
2022/10/14 03:20:30;;;;;;;14.32;6.70;;;;;;;;;;5020614;28;20033;-68
2022/10/14 03:22:55;;;;;;;13.85;6.70;;;;;;;;;;5021427;28;20139;-69
2022/10/14 03:25:21;;;;;;;12.38;6.68;;;;;;;;;;5018042;28;20030;-69
2022/10/14 03:27:47;;;;;;;11.77;6.32;;;;;;;;;;5022926;28;20026;-69
2022/10/14 03:30:12;;;;;;;12.05;6.93;;;;;;;;;;5016055;28;20524;-68
2022/10/14 03:32:38;;;;;;;10.98;6.35;;;;;;;;;;5024003;28;20124;-68
2022/10/14 03:35:03;;;;;;;8.98;5.97;;;;;;;;;;5003702;28;20045;-68
2022/10/14 03:37:29;;;;;;;11.90;6.45;;;;;;;;;;5021161;28;20103;-69
2022/10/14 03:39:54;;;;;;;14.73;6.35;;;;;;;;;;5022577;28;20366;-69
2022/10/14 03:42:19;;;;;;;10.57;7.03;;;;;;;;;;5021768;28;20033;-70
2022/10/14 03:44:45;;;;;;;15.20;6.72;;;;;;;;;;5021141;28;20065;-69
2022/10/14 03:47:10;;;;;;;10.57;6.90;;;;;;;;;;5022992;28;20033;-70
2022/10/14 03:49:36;;;;;;;10.45;6.38;;;;;;;;;;5018767;28;20041;-70
2022/10/14 03:52:01;;;;;;;14.07;7.07;;;;;;;;;;5020947;28;20047;-68
2022/10/14 03:54:27;;;;;;;15.23;6.95;;;;;;;;;;5025418;28;20420;-71
2022/10/14 03:56:52;;;;;;;13.30;6.93;;;;;;;;;;5006599;28;20473;-67
2022/10/14 03:59:17;;;;;;;11.95;6.97;;;;;;;;;;5023080;28;20438;-69
2022/10/14 04:01:43;;;;;;;15.35;7.50;;;;;;;;;;5013283;28;20045;-70
2022/10/14 04:04:08;;;;;;;13.00;7.22;;;;;;;;;;5019379;28;20057;-69
2022/10/14 04:06:34;;;;;;;15.13;7.45;;;;;;;;;;4998456;28;20026;-68
2022/10/14 04:08:59;;;;;;;12.18;7.25;;;;;;;;;;5016391;28;20110;-69
2022/10/14 04:11:25;;;;;;;14.75;7.47;;;;;;;;;;5019716;28;20375;-68
2022/10/14 04:13:50;;;;;;;12.35;7.20;;;;;;;;;;5000886;28;20061;-69
2022/10/14 04:16:15;;;;;;;13.40;6.65;;;;;;;;;;5004889;28;20037;-69
2022/10/14 04:18:41;;;;;;;12.95;7.90;;;;;;;;;;5021427;28;20092;-69
2022/10/14 04:21:10;;;;;;;11.80;8.50;;;;;;;;;;5018399;28;20025;-69
2022/10/14 04:23:36;;;;;;;10.70;7.25;;;;;;;;;;5002025;28;20485;-68
2022/10/14 04:26:04;;;;;;;10.98;7.55;;;;;;;;;;5003306;28;20048;-69
2022/10/14 04:28:30;;;;;;;14.07;7.68;;;;;;;;;;5015002;28;20068;-70
2022/10/14 04:30:55;;;;;;;16.67;8.25;;;;;;;;;;5015954;28;20026;-69
2022/10/14 04:33:21;;;;;;;10.50;7.68;;;;;;;;;;5017495;28;20043;-69
2022/10/14 04:35:46;;;;;;;12.23;7.65;;;;;;;;;;5017321;28;20037;-69
2022/10/14 04:38:12;;;;;;;15.13;7.70;;;;;;;;;;5017265;28;20128;-69
2022/10/14 04:40:38;;;;;;;16.25;8.15;;;;;;;;;;5016061;28;20030;-69
2022/10/14 04:43:03;;;;;;;15.57;8.68;;;;;;;;;;5015839;28;20050;-69
2022/10/14 04:45:29;;;;;;;14.90;8.10;;;;;;;;;;5017511;28;20032;-68
2022/10/14 04:47:54;;;;;;;23.58;9.57;;;;;;;;;;5017009;28;20119;-69
2022/10/14 04:50:19;;;;;;;15.57;9.32;;;;;;;;;;5001642;28;20045;-68
2022/10/14 04:52:45;;;;;;;17.38;10.13;;;;;;;;;;5018168;28;20407;-70
2022/10/14 04:55:11;;;;;;;20.17;11.05;;;;;;;;;;5013378;28;22045;-69
2022/10/14 04:57:39;;;;;;;20.25;10.80;;;;;;;;;;5002943;28;20029;-69
2022/10/14 05:00:05;;;;;;;14.60;9.70;;;;;;;;;;5003075;28;20041;-69
2022/10/14 05:02:31;;;;;;;19.40;9.68;;;;;;;;;;5006130;28;20491;-68
2022/10/14 05:04:56;;;;;;;15.75;9.57;;;;;;;;;;5005255;28;20045;-69
2022/10/14 05:07:22;;;;;;;14.70;9.13;;;;;;;;;;5003934;28;20038;-70
2022/10/14 05:09:47;;;;;;;16.85;10.48;;;;;;;;;;5020931;28;20033;-68
2022/10/14 05:12:13;;;;;;;17.33;10.77;;;;;;;;;;5006651;28;20041;-68
2022/10/14 05:14:39;;;;;;;15.48;10.02;;;;;;;;;;5005530;28;20146;-68
2022/10/14 05:17:04;;;;;;;17.17;9.70;;;;;;;;;;5019511;28;20135;-68
2022/10/14 05:19:30;;;;;;;14.82;9.23;;;;;;;;;;5024378;28;20061;-68
2022/10/14 05:21:55;;;;;;;14.35;9.43;;;;;;;;;;5023407;28;20021;-69
2022/10/14 05:24:21;;;;;;;16.63;10.63;;;;;;;;;;5018539;28;20028;-68
2022/10/14 05:26:47;;;;;;;19.08;10.05;;;;;;;;;;5004281;28;20060;-68
2022/10/14 05:29:13;;;;;;;19.80;10.10;;;;;;;;;;5005986;28;20037;-70
2022/10/14 05:31:38;;;;;;;16.73;9.60;;;;;;;;;;5015204;28;20084;-68
2022/10/14 05:34:04;;;;;;;25.92;10.25;;;;;;;;;;5020610;28;20366;-68
2022/10/14 05:36:29;;;;;;;15.38;9.35;;;;;;;;;;5021516;28;20033;-68
2022/10/14 05:38:57;;;;;;;19.55;10.10;;;;;;;;;;5023080;28;20037;-68
2022/10/14 05:41:23;;;;;;;17.30;9.52;;;;;;;;;;5003851;28;20631;-69
2022/10/14 05:43:49;;;;;;;16.85;10.45;;;;;;;;;;5017931;28;20543;-70
2022/10/14 05:46:15;;;;;;;17.02;10.20;;;;;;;;;;5020550;28;20049;-70
2022/10/14 05:48:40;;;;;;;14.75;9.93;;;;;;;;;;5020795;28;20034;-70
2022/10/14 05:51:06;;;;;;;19.27;11.20;;;;;;;;;;5020370;28;20103;-68
2022/10/14 05:53:31;;;;;;;14.73;10.10;;;;;;;;;;5020805;28;20132;-68
2022/10/14 05:56:05;;;;;;;18.20;10.15;;;;;;;;;;5018531;28;20457;-68
2022/10/14 05:58:31;;;;;;;20.23;10.98;;;;;;;;;;5022096;28;20489;-68
2022/10/14 06:01:04;;;;;;;19.90;10.90;;;;;;;;;;5019687;28;20078;-71
2022/10/14 06:03:29;;;;;;;18.77;11.00;;;;;;;;;;5025014;28;20037;-68
2022/10/14 06:05:55;;;;;;;20.05;11.40;;;;;;;;;;5001928;28;20096;-68
2022/10/14 06:08:22;;;;;;;20.02;11.27;;;;;;;;;;5017165;28;20041;-68
2022/10/14 06:10:48;;;;;;;23.63;10.73;;;;;;;;;;5016767;28;20060;-68
2022/10/14 06:13:13;;;;;;;17.70;11.05;;;;;;;;;;5014887;28;20494;-68
2022/10/14 06:15:39;;;;;;;16.73;10.75;;;;;;;;;;4996281;28;20075;-68
2022/10/14 06:18:04;;;;;;;19.50;11.48;;;;;;;;;;5019493;28;20022;-68
2022/10/14 06:20:30;;;;;;;17.92;10.98;;;;;;;;;;5017363;28;20037;-68
2022/10/14 06:22:57;;;;;;;22.92;11.48;;;;;;;;;;4983915;28;20037;-68
2022/10/14 06:25:23;;;;;;;16.35;10.75;;;;;;;;;;4999092;28;20038;-67
2022/10/14 06:27:48;;;;;;;22.88;10.75;;;;;;;;;;4998795;28;20036;-68
2022/10/14 06:30:14;;;;;;;15.15;10.38;;;;;;;;;;5017718;28;20029;-69
2022/10/14 06:32:39;;;;;;;20.27;10.70;;;;;;;;;;5004294;28;20029;-68
2022/10/14 06:35:05;;;;;;;20.35;10.40;;;;;;;;;;5007169;28;20091;-68
2022/10/14 06:37:31;;;;;;;17.08;11.13;;;;;;;;;;5019221;28;20112;-68
2022/10/14 06:39:56;;;;;;;17.23;10.60;;;;;;;;;;5020855;28;20036;-68
2022/10/14 06:42:21;;;;;;;16.85;10.10;;;;;;;;;;5018312;28;20033;-71
2022/10/14 06:44:47;;;;;;;14.63;10.52;;;;;;;;;;5008814;28;20030;-68
2022/10/14 06:47:12;;;;;;;21.08;10.40;;;;;;;;;;5015345;28;20033;-68
2022/10/14 06:49:38;;;;;;;18.30;9.85;;;;;;;;;;5003190;28;20192;-68
2022/10/14 06:52:03;;;;;;;19.50;9.85;;;;;;;;;;5003882;28;20040;-68
2022/10/14 06:54:29;;;;;;;17.85;9.82;;;;;;;;;;5005663;28;20542;-68
2022/10/14 06:56:56;;;;;;;13.27;9.38;;;;;;;;;;4997670;28;20167;-68
2022/10/14 06:59:22;;;;;;;12.27;9.00;;;;;;;;;;5001405;28;20713;-68
2022/10/14 07:01:47;;;;;;;16.85;8.73;;;;;;;;;;5001770;28;20029;-67
2022/10/14 07:04:13;;;;;;;15.20;9.57;;;;;;;;;;5001795;28;20052;-68
2022/10/14 07:06:38;;;;;;;18.40;9.82;;;;;;;;;;5018586;28;20083;-68
2022/10/14 07:09:04;;;;;;;19.13;9.48;;;;;;;;;;5002801;28;20056;-68
2022/10/14 07:11:29;;;;;;;17.27;9.27;;;;;;;;;;5018897;28;20404;-68
2022/10/14 07:13:55;;;;;;;22.08;9.20;;;;;;;;;;5022924;28;20060;-68
2022/10/14 07:16:21;;;;;;;13.52;8.88;;;;;;;;;;5005810;28;20033;-68
2022/10/14 07:18:47;;;;;;;10.32;8.10;;;;;;;;;;5021020;28;20029;-70
2022/10/14 07:21:13;;;;;;;20.17;10.05;;;;;;;;;;5016155;28;20537;-68
2022/10/14 07:23:39;;;;;;;19.55;11.35;;;;;;;;;;5019215;28;20145;-68
2022/10/14 07:26:06;;;;;;;15.10;9.63;;;;;;;;;;4997511;28;20446;-68
2022/10/14 07:28:32;;;;;;;20.70;9.57;;;;;;;;;;5002355;28;20049;-68
2022/10/14 07:31:07;;;;;;;17.80;9.43;;;;;;;;;;5017611;28;20448;-68
2022/10/14 07:33:37;;;;;;;18.85;9.10;;;;;;;;;;5018852;28;20519;-68
2022/10/14 07:36:05;;;;;;;17.73;9.82;;;;;;;;;;5018992;28;20049;-68
2022/10/14 07:38:30;;;;;;;14.02;9.43;;;;;;;;;;4999910;28;20029;-69
2022/10/14 07:41:15;;;;;;;18.75;9.68;;;;;;;;;;5016941;28;20045;-70
2022/10/14 07:43:42;;;;;;;14.18;9.45;;;;;;;;;;5018965;28;20053;-70
2022/10/14 07:46:08;;;;;;;13.07;9.30;;;;;;;;;;5004793;28;20408;-69
2022/10/14 07:48:34;;;;;;;14.30;9.23;;;;;;;;;;5006648;28;20141;-69
2022/10/14 07:50:59;;;;;;;14.90;9.07;;;;;;;;;;5002943;28;20080;-68
2022/10/14 07:53:26;;;;;;;15.05;9.38;;;;;;;;;;5002905;28;20683;-68
2022/10/14 07:55:52;;;;;;;13.82;9.70;;;;;;;;;;5018999;28;20572;-69
2022/10/14 07:58:23;;;;;;;15.38;8.98;;;;;;;;;;5001994;28;20152;-68
2022/10/14 08:00:49;;;;;;;14.65;9.20;;;;;;;;;;5019905;28;20515;-68
2022/10/14 08:03:19;;;;;;;14.35;8.88;;;;;;;;;;5016013;28;20108;-68
2022/10/14 08:05:46;;;;;;;13.32;9.02;;;;;;;;;;5014734;28;20109;-73
2022/10/14 08:08:11;;;;;;;19.73;10.07;;;;;;;;;;4985661;28;20038;-70
2022/10/14 08:10:38;;;;;;;15.35;9.25;;;;;;;;;;5019305;28;20054;-68
2022/10/14 08:13:04;;;;;;;15.27;8.88;;;;;;;;;;5012389;28;20046;-68
2022/10/14 08:15:39;;;;;;;15.82;9.10;;;;;;;;;;5018435;28;20487;-69
2022/10/14 08:18:06;;;;;;;14.70;8.73;;;;;;;;;;5013610;28;20041;-68
2022/10/14 08:20:32;;;;;;;20.13;9.60;;;;;;;;;;5017593;28;20215;-69
2022/10/14 08:22:58;;;;;;;15.63;8.82;;;;;;;;;;5001262;28;20047;-69
2022/10/14 08:25:24;;;;;;;13.43;8.90;;;;;;;;;;4997743;28;20046;-68
2022/10/14 08:27:50;;;;;;;19.77;9.43;;;;;;;;;;5011029;28;20401;-69
2022/10/14 08:30:16;;;;;;;14.85;9.40;;;;;;;;;;4998017;28;20032;-67
2022/10/14 08:32:41;;;;;;;13.38;8.93;;;;;;;;;;5022344;28;20063;-67
2022/10/14 08:35:07;;;;;;;14.10;9.00;;;;;;;;;;5005367;28;20157;-69
2022/10/14 08:37:35;;;;;;;20.42;9.75;;;;;;;;;;5018640;28;20042;-70
2022/10/14 08:40:00;;;;;;;15.98;9.18;;;;;;;;;;5008663;28;20457;-70
2022/10/14 08:42:36;;;;;;;16.38;9.20;;;;;;;;;;5006710;28;20029;-70
2022/10/14 08:45:09;;;;;;;15.48;8.90;;;;;;;;;;5021263;28;21273;-70
2022/10/14 08:47:39;;;;;;;25.67;10.38;;;;;;;;;;5020638;28;20049;-70
2022/10/14 08:50:10;;;;;;;19.13;9.57;;;;;;;;;;5019085;28;20033;-70
2022/10/14 08:52:45;;;;;;;14.30;9.43;;;;;;;;;;5023192;28;20029;-70
2022/10/14 08:55:38;;;;;;;17.17;10.10;;;;;;;;;;5020177;28;20061;-70
2022/10/14 08:58:13;;;;;;;20.83;10.13;;;;;;;;;;5018485;28;20045;-71
2022/10/14 09:00:46;;;;;;;18.10;10.27;;;;;;;;;;5000482;28;20033;-69
2022/10/14 09:03:20;;;;;;;21.48;11.13;;;;;;;;;;5022501;28;20025;-69
2022/10/14 09:05:56;;;;;;;19.88;11.02;;;;;;;;;;5014999;28;20198;-69
2022/10/14 09:08:29;;;;;;;17.60;11.20;;;;;;;;;;5019076;28;20036;-70
2022/10/14 09:10:55;;;;;;;16.48;10.70;;;;;;;;;;5020899;28;20033;-70
2022/10/14 09:13:35;;;;;;;19.27;12.05;;;;;;;;;;5024550;28;20136;-69
2022/10/14 09:16:05;;;;;;;20.08;11.60;;;;;;;;;;5016282;28;20052;-71
2022/10/14 09:19:15;;;;;;;23.63;13.68;;;;;;;;;;5015639;28;20075;-76
2022/10/14 09:21:50;;;;;;;21.25;12.63;;;;;;;;;;4989485;28;20038;-72
2022/10/14 09:24:20;;;;;;;24.15;15.27;;;;;;;;;;5014259;28;20032;-70
2022/10/14 09:27:12;;;;;;;34.83;14.95;;;;;;;;;;5017389;28;20040;-71
2022/10/14 09:29:49;;;;;;;21.65;14.30;;;;;;;;;;5004482;28;20060;-70
2022/10/14 09:32:25;;;;;;;21.98;15.00;;;;;;;;;;5014286;28;20080;-70
2022/10/14 09:34:51;;;;;;;22.08;15.20;;;;;;;;;;5016626;28;20095;-70
2022/10/14 09:37:21;;;;;;;24.55;14.98;;;;;;;;;;5017009;28;20095;-71
2022/10/14 09:39:48;;;;;;;23.15;15.45;;;;;;;;;;5016330;28;20163;-72
2022/10/14 09:42:20;;;;;;;26.92;15.20;;;;;;;;;;5015199;28;20084;-72
2022/10/14 09:45:09;;;;;;;24.65;16.15;;;;;;;;;;5013550;28;20038;-71
2022/10/14 09:47:45;;;;;;;23.92;16.15;;;;;;;;;;5018941;28;20497;-71
2022/10/14 09:50:20;;;;;;;27.52;15.52;;;;;;;;;;5016457;28;20050;-71
2022/10/14 09:52:51;;;;;;;26.38;15.57;;;;;;;;;;5016628;28;20410;-71
2022/10/14 09:55:20;;;;;;;22.00;15.65;;;;;;;;;;5016672;28;20111;-70
2022/10/14 09:57:46;;;;;;;21.73;15.73;;;;;;;;;;5019996;28;20032;-71
2022/10/14 10:00:27;;;;;;;28.55;15.48;;;;;;;;;;5013782;28;20033;-70
2022/10/14 10:02:54;;;;;;;22.17;15.75;;;;;;;;;;5018617;28;20029;-69
2022/10/14 10:05:32;;;;;;;26.38;15.00;;;;;;;;;;5014290;28;20041;-70
2022/10/14 10:08:03;;;;;;;20.20;14.65;;;;;;;;;;5018947;28;20624;-69
2022/10/14 10:10:29;;;;;;;22.88;14.80;;;;;;;;;;5012198;28;20041;-70
2022/10/14 10:12:56;;;;;;;18.88;13.38;;;;;;;;;;5015845;28;20041;-70
2022/10/14 10:15:21;;;;;;;31.70;15.23;;;;;;;;;;4997672;28;20032;-69
2022/10/14 10:17:48;;;;;;;27.60;14.93;;;;;;;;;;5018544;28;20029;-69
2022/10/14 10:20:16;;;;;;;19.75;13.57;;;;;;;;;;5008163;28;20038;-69
2022/10/14 10:22:41;;;;;;;23.52;14.00;;;;;;;;;;5002184;28;20037;-70
2022/10/14 10:25:07;;;;;;;22.17;14.32;;;;;;;;;;5020084;28;20274;-70
2022/10/14 10:27:34;;;;;;;23.80;13.10;;;;;;;;;;5006038;28;20045;-70
2022/10/14 10:30:14;;;;;;;17.90;12.63;;;;;;;;;;5004023;28;20504;-70
2022/10/14 10:33:04;;;;;;;17.95;12.32;;;;;;;;;;5003908;28;20040;-69
2022/10/14 10:36:03;;;;;;;19.27;12.63;;;;;;;;;;5009667;28;20385;-67
2022/10/14 10:39:01;;;;;;;22.83;13.15;;;;;;;;;;5019757;28;20091;-69
2022/10/14 10:41:50;;;;;;;23.85;11.13;;;;;;;;;;5016221;28;20090;-69
2022/10/14 10:44:39;;;;;;;24.17;11.55;;;;;;;;;;5018237;28;20061;-69
2022/10/14 10:47:19;;;;;;;20.38;11.57;;;;;;;;;;5018474;28;20045;-70
2022/10/14 10:50:10;;;;;;;18.33;9.65;;;;;;;;;;5017767;28;20046;-69
2022/10/14 10:52:47;;;;;;;15.15;8.77;;;;;;;;;;5015287;28;20442;-69
2022/10/14 10:55:29;;;;;;;13.52;8.50;;;;;;;;;;5017108;28;20173;-68
2022/10/14 10:58:04;;;;;;;13.25;7.82;;;;;;;;;;5017182;28;20504;-68
2022/10/14 11:00:38;;;;;;;13.70;8.13;;;;;;;;;;5005737;28;20470;-68
2022/10/14 11:03:31;;;;;;;11.55;7.75;;;;;;;;;;5002599;28;21553;-68
2022/10/14 11:12:01;;;;;;;11.88;7.93;;;;;;;;;;5015506;28;20378;-68
2022/10/14 11:12:12;;;;;;;14.32;8.68;;;;;;;;;;5015252;28;20037;-68
2022/10/14 11:15:05;;;;;;;14.60;7.97;;;;;;;;;;5005263;28;20512;-68
2022/10/14 11:17:42;;;;;;;14.30;8.35;;;;;;;;;;5019024;28;20026;-68
2022/10/14 11:20:35;;;;;;;11.48;7.68;;;;;;;;;;5014170;28;20498;-68
2022/10/14 11:23:19;;;;;;;17.35;9.77;;;;;;;;;;4992659;28;20053;-68
2022/10/14 11:25:48;;;;;;;21.67;10.07;;;;;;;;;;5013058;28;20156;-67
2022/10/14 11:28:22;;;;;;;25.95;10.57;;;;;;;;;;5017827;28;20709;-68
2022/10/14 11:31:07;;;;;;;20.77;11.75;;;;;;;;;;5022059;28;20021;-71
2022/10/14 11:34:02;;;;;;;17.98;10.88;;;;;;;;;;5007242;28;20036;-68
2022/10/14 11:36:59;;;;;;;24.13;12.65;;;;;;;;;;4987387;28;20038;-68
2022/10/14 11:39:55;;;;;;;24.30;12.57;;;;;;;;;;5003892;28;20046;-68
2022/10/14 11:42:30;;;;;;;23.58;11.43;;;;;;;;;;4999459;28;20053;-68
2022/10/14 11:45:24;;;;;;;24.17;11.35;;;;;;;;;;5018846;28;20503;-71
2022/10/14 11:47:51;;;;;;;;;;;;;;;;;;5013595;28;20076;-69
2022/10/14 11:50:28;;;;;;;17.35;8.98;;;;;;;;;;4994171;28;19925;-69
2022/10/14 11:53:00;;;;;;;17.13;8.38;;;;;;;;;;5010898;28;20048;-69
2022/10/14 11:55:32;;;;;;;14.20;9.00;;;;;;;;;;5013797;28;20460;-69
2022/10/14 11:58:04;;;;;;;16.70;9.75;;;;;;;;;;5011953;28;20057;-69
2022/10/14 12:00:32;;;;;;;16.35;8.25;;;;;;;;;;5011294;28;20091;-69
2022/10/14 12:03:12;;;;;;;15.20;8.70;;;;;;;;;;5011005;28;20038;-69
2022/10/14 12:05:41;;;;;;;14.25;8.52;;;;;;;;;;5015990;28;20095;-68
2022/10/14 12:08:24;;;;;;;11.73;7.90;;;;;;;;;;5020676;28;20457;-69
2022/10/14 12:10:52;;;;;;;;;;;;;;;;;;5017329;28;20067;-69
2022/10/14 12:13:31;;;;;;;19.45;9.10;;;;;;;;;;5016213;28;20044;-69
2022/10/14 12:15:59;;;;;;;16.73;8.65;;;;;;;;;;4999660;28;20060;-71
2022/10/14 12:18:26;;;;;;;14.95;8.82;;;;;;;;;;5015116;28;20030;-68
2022/10/14 12:21:02;;;;;;;20.50;9.52;;;;;;;;;;5018953;28;20515;-69
2022/10/14 12:23:42;;;;;;;20.45;10.02;;;;;;;;;;5016788;28;21319;-69
2022/10/14 12:26:38;;;;;;;15.15;10.18;;;;;;;;;;5016118;28;20038;-69
2022/10/14 12:29:04;;;;;;;14.45;8.90;;;;;;;;;;5011630;28;20036;-70
2022/10/14 12:31:36;;;;;;;13.65;9.23;;;;;;;;;;5017786;28;20038;-69
2022/10/14 12:34:10;;;;;;;13.37;8.70;;;;;;;;;;5001020;28;20049;-72
2022/10/14 12:36:37;;;;;;;15.13;8.43;;;;;;;;;;4998880;28;20497;-69
2022/10/14 12:39:17;;;;;;;15.40;8.77;;;;;;;;;;5001480;28;20123;-69
2022/10/14 12:41:54;;;;;;;15.32;8.45;;;;;;;;;;5019907;28;20041;-69
2022/10/14 12:44:22;;;;;;;14.48;8.25;;;;;;;;;;5018028;28;20038;-69
2022/10/14 12:46:50;;;;;;;14.77;8.80;;;;;;;;;;5015012;28;20045;-69
2022/10/14 12:49:32;;;;;;;16.00;8.00;;;;;;;;;;5014331;28;20038;-70
2022/10/14 12:52:01;;;;;;;12.02;7.88;;;;;;;;;;5017190;28;20033;-69
2022/10/14 12:54:28;;;;;;;12.90;7.60;;;;;;;;;;4999110;28;20037;-70
2022/10/14 12:56:53;;;;;;;13.70;7.57;;;;;;;;;;5017889;28;20401;-69
2022/10/14 12:59:27;;;;;;;11.40;6.70;;;;;;;;;;5018978;28;20042;-69
2022/10/14 13:01:55;;;;;;;12.00;7.07;;;;;;;;;;5019448;28;20451;-69
2022/10/14 13:04:21;;;;;;;13.30;7.82;;;;;;;;;;5013164;28;20064;-68
2022/10/14 13:07:13;;;;;;;13.63;7.57;;;;;;;;;;4995861;28;20029;-71
2022/10/14 13:09:38;;;;;;;8.95;7.10;;;;;;;;;;4999554;28;20049;-68
2022/10/14 13:12:04;;;;;;;9.30;6.97;;;;;;;;;;5018631;28;20477;-69
2022/10/14 13:14:31;;;;;;;10.57;7.35;;;;;;;;;;5020309;28;21212;-70
2022/10/14 13:17:00;;;;;;;13.43;7.22;;;;;;;;;;5013217;28;20057;-69
2022/10/14 13:19:32;;;;;;;12.95;7.15;;;;;;;;;;5014782;28;20046;-71
2022/10/14 13:22:20;;;;;;;14.93;7.25;;;;;;;;;;4987649;28;20037;-70
2022/10/14 13:24:51;;;;;;;11.10;7.25;;;;;;;;;;5006300;28;20283;-70
2022/10/14 13:27:32;;;;;;;10.40;6.97;;;;;;;;;;5022451;28;20032;-71
2022/10/14 13:30:34;;;;;;;14.52;7.72;;;;;;;;;;5012991;28;20831;-71
2022/10/14 13:33:33;;;;;;;15.52;6.85;;;;;;;;;;4998330;28;20080;-70
2022/10/14 13:36:31;;;;;;;12.80;7.35;;;;;;;;;;4984868;28;20046;-70
2022/10/14 13:39:01;;;;;;;12.50;6.75;;;;;;;;;;4989695;28;20065;-71
2022/10/14 13:41:44;;;;;;;10.48;6.60;;;;;;;;;;5014654;28;20057;-71
2022/10/14 13:44:34;;;;;;;10.80;6.72;;;;;;;;;;4973856;28;20041;-69
2022/10/14 13:46:59;;;;;;;8.68;5.60;;;;;;;;;;5006066;28;21929;-69
2022/10/14 13:50:00;;;;;;;9.23;6.05;;;;;;;;;;5017653;28;20120;-70
2022/10/14 13:52:39;;;;;;;11.40;6.05;;;;;;;;;;4951519;28;20094;-70
2022/10/14 13:55:29;;;;;;;8.52;5.55;;;;;;;;;;5010073;28;20448;-70
2022/10/14 13:58:27;;;;;;;11.90;5.97;;;;;;;;;;5000345;28;20026;-71
2022/10/14 14:00:56;;;;;;;9.02;5.53;;;;;;;;;;4988379;28;20034;-71
2022/10/14 14:03:55;;;;;;;10.23;5.30;;;;;;;;;;4997987;28;20080;-70
2022/10/14 14:06:27;;;;;;;13.48;5.60;;;;;;;;;;5001083;28;20053;-72
2022/10/14 14:09:20;;;;;;;10.30;5.13;;;;;;;;;;4985406;28;20034;-73
2022/10/14 14:14:51;;;;;;;6.97;4.78;;;;;;;;;;5018826;28;19921;-71
2022/10/14 14:17:22;;;;;;;8.65;5.07;;;;;;;;;;5009617;28;20068;-68
2022/10/14 14:19:49;;;;;;;13.32;6.60;;;;;;;;;;5024147;28;20053;-73
2022/10/14 14:22:27;;;;;;;8.05;5.82;;;;;;;;;;5020824;28;20559;-70
2022/10/14 14:25:25;;;;;;;9.88;5.35;;;;;;;;;;5002520;28;20037;-69
2022/10/14 14:27:56;;;;;;;7.95;4.90;;;;;;;;;;4999357;28;20029;-70
2022/10/14 14:30:35;;;;;;;7.97;4.85;;;;;;;;;;5003699;28;20075;-70
2022/10/14 14:33:05;;;;;;;9.15;5.88;;;;;;;;;;5011734;28;20090;-69
2022/10/14 14:35:31;;;;;;;8.25;4.53;;;;;;;;;;5022246;28;20041;-70
2022/10/14 14:37:56;;;;;;;9.90;5.07;;;;;;;;;;5003704;28;20038;-69
2022/10/14 14:40:29;;;;;;;8.88;5.32;;;;;;;;;;4989091;28;20041;-69
2022/10/14 14:42:59;;;;;;;7.75;5.40;;;;;;;;;;4992028;28;20405;-70
2022/10/14 14:45:45;;;;;;;8.52;5.13;;;;;;;;;;5009766;28;20028;-70
2022/10/14 14:48:32;;;;;;;6.18;5.10;;;;;;;;;;5006914;28;20041;-69
2022/10/14 14:51:11;;;;;;;7.45;5.00;;;;;;;;;;4974741;28;20417;-70
2022/10/14 14:53:38;;;;;;;7.22;5.30;;;;;;;;;;4988829;28;20074;-70
2022/10/14 14:56:33;;;;;;;10.05;5.15;;;;;;;;;;4978262;28;20046;-69
2022/10/14 14:59:40;;;;;;;;;;;;;;;;;;;;;
2022/10/14 15:02:15;;;;;;;7.10;5.00;;;;;;;;;;5011600;28;20055;-69